Time;durP1;ratioP1;P1;durP2;ratioP2;P2;SDS_P1;SDS_P2;PMS_P1;PMS_P2;Temp;Humidity;BMP_temperature;BMP_pressure;BME280_temperature;BME280_humidity;BME280_pressure;Samples;Min_cycle;Max_cycle;Signal;HPM_P1;HPM_P2
2022/01/08 00:00:52;;;;;;;7.35;1.70;;;2.00;99.90;;;;;;5008833;28;20073;-45
2022/01/08 00:03:18;;;;;;;3.83;2.25;;;1.90;99.90;;;;;;5009022;28;20426;-47
2022/01/08 00:05:43;;;;;;;4.32;1.60;;;1.90;99.90;;;;;;5008883;28;20049;-49
2022/01/08 00:08:09;;;;;;;5.50;1.58;;;1.90;99.90;;;;;;5008910;28;20042;-47
2022/01/08 00:10:35;;;;;;;4.55;1.67;;;1.90;99.90;;;;;;5008881;28;20042;-47
2022/01/08 00:13:01;;;;;;;5.82;1.65;;;1.80;99.90;;;;;;5009026;28;20042;-50
2022/01/08 00:15:27;;;;;;;4.05;1.48;;;1.90;99.90;;;;;;5010562;28;20100;-48
2022/01/08 00:17:53;;;;;;;4.72;1.30;;;1.80;99.90;;;;;;5011135;28;20121;-46
2022/01/08 00:20:19;;;;;;;7.03;1.52;;;1.80;99.90;;;;;;5011725;28;20038;-48
2022/01/08 00:22:44;;;;;;;6.65;1.73;;;1.80;99.90;;;;;;5012148;28;20049;-47
2022/01/08 00:25:10;;;;;;;4.40;1.50;;;1.80;99.90;;;;;;5012083;28;20410;-48
2022/01/08 00:27:36;;;;;;;4.22;1.52;;;1.80;99.90;;;;;;5012067;28;20117;-51
2022/01/08 00:30:03;;;;;;;5.45;1.80;;;1.90;99.90;;;;;;5011738;28;20121;-49
2022/01/08 00:32:29;;;;;;;7.18;2.03;;;1.90;99.90;;;;;;5012108;28;20046;-49
2022/01/08 00:34:54;;;;;;;4.03;1.80;;;1.90;99.90;;;;;;5012044;28;20048;-51
2022/01/08 00:37:20;;;;;;;3.65;1.40;;;1.80;99.90;;;;;;5011697;28;20060;-48
2022/01/08 00:39:47;;;;;;;5.22;1.30;;;1.80;99.90;;;;;;5011768;28;20129;-49
2022/01/08 00:42:13;;;;;;;4.97;1.50;;;1.80;99.90;;;;;;5011794;28;20037;-47
2022/01/08 00:44:38;;;;;;;6.15;1.30;;;1.80;99.90;;;;;;5010627;28;20396;-49
2022/01/08 00:47:04;;;;;;;3.28;1.30;;;1.80;99.90;;;;;;5011657;28;20038;-50
2022/01/08 00:49:30;;;;;;;5.30;1.88;;;1.70;99.90;;;;;;5011685;28;20034;-50
2022/01/08 00:51:55;;;;;;;6.00;1.92;;;1.70;99.90;;;;;;5011454;28;20034;-48
2022/01/08 00:54:21;;;;;;;4.90;1.98;;;1.70;99.90;;;;;;5011691;28;20116;-46
2022/01/08 00:56:48;;;;;;;3.45;1.70;;;1.60;99.90;;;;;;5011530;28;20121;-50
2022/01/08 00:59:14;;;;;;;3.53;1.58;;;1.60;99.90;;;;;;5011464;28;20399;-48
2022/01/08 01:01:40;;;;;;;5.47;1.65;;;1.60;99.90;;;;;;5011806;28;20133;-48
2022/01/08 01:04:06;;;;;;;3.28;1.98;;;1.60;99.90;;;;;;5011515;28;20042;-51
2022/01/08 01:06:32;;;;;;;6.43;2.10;;;1.60;99.90;;;;;;5012034;28;20038;-47
2022/01/08 01:08:57;;;;;;;5.22;2.17;;;1.60;99.90;;;;;;5011335;28;20048;-46
2022/01/08 01:11:23;;;;;;;8.55;2.70;;;1.60;99.90;;;;;;5011352;28;20038;-47
2022/01/08 01:13:48;;;;;;;6.00;2.65;;;1.70;99.90;;;;;;5011098;28;20099;-50
2022/01/08 01:16:14;;;;;;;6.85;2.15;;;1.70;99.90;;;;;;5011337;28;20052;-50
2022/01/08 01:18:40;;;;;;;5.38;2.60;;;1.70;99.90;;;;;;5011337;28;20163;-48
2022/01/08 01:21:06;;;;;;;8.35;3.08;;;1.70;99.90;;;;;;5011300;28;20480;-45
2022/01/08 01:23:37;;;;;;;8.07;3.30;;;1.70;99.90;;;;;;5011025;28;20153;-50
2022/01/08 01:26:06;;;;;;;5.72;2.40;;;1.70;99.90;;;;;;5010716;28;20038;-47
2022/01/08 01:41:10;;;;;;;6.37;2.77;;;1.80;99.90;;;;;;5011326;28;20078;-47
2022/01/08 01:47:12;;;;;;;7.72;3.03;;;1.80;99.90;;;;;;5010849;28;20041;-47
2022/01/08 01:49:40;;;;;;;7.47;2.83;;;1.80;99.90;;;;;;5009478;28;20057;-48
2022/01/08 01:52:08;;;;;;;9.75;3.53;;;1.80;99.90;;;;;;5010707;28;20077;-50
2022/01/08 01:54:35;;;;;;;6.68;3.03;;;1.80;99.90;;;;;;5010935;28;20045;-50
2022/01/08 01:57:02;;;;;;;7.97;3.53;;;1.80;99.90;;;;;;5010672;28;20049;-47
2022/01/08 01:59:30;;;;;;;10.10;2.72;;;1.80;99.90;;;;;;5010547;28;20522;-46
2022/01/08 02:01:56;;;;;;;5.45;2.65;;;1.80;99.90;;;;;;5010495;28;20073;-47
2022/01/08 02:04:22;;;;;;;7.90;2.42;;;1.70;99.90;;;;;;5010720;28;20038;-49
2022/01/08 02:06:49;;;;;;;7.68;2.53;;;1.70;99.90;;;;;;5010696;28;20038;-50
2022/01/08 02:09:14;;;;;;;7.88;2.55;;;1.70;99.90;;;;;;5010713;28;20090;-49
2022/01/08 02:12:00;;;;;;;7.72;2.78;;;1.70;99.90;;;;;;5010546;28;20034;-49
2022/01/08 02:14:28;;;;;;;6.80;2.30;;;1.70;99.90;;;;;;5010444;28;20560;-50
2022/01/08 02:16:54;;;;;;;8.23;3.20;;;1.70;99.90;;;;;;5010870;28;20045;-47
2022/01/08 02:19:20;;;;;;;7.75;2.90;;;1.60;99.90;;;;;;5010679;28;20046;-47
2022/01/08 02:21:54;;;;;;;6.00;2.70;;;1.60;99.90;;;;;;5009083;28;20049;-50
2022/01/08 02:24:21;;;;;;;6.70;2.97;;;1.70;99.90;;;;;;5010739;28;20050;-51
2022/01/08 02:26:47;;;;;;;9.05;2.50;;;1.60;99.90;;;;;;5010004;28;20037;-46
2022/01/08 02:29:14;;;;;;;10.85;2.63;;;1.60;99.90;;;;;;5010368;28;20038;-52
2022/01/08 02:31:40;;;;;;;8.82;2.45;;;1.60;99.90;;;;;;5010494;28;20112;-52
2022/01/08 02:34:07;;;;;;;6.55;2.63;;;1.60;99.90;;;;;;5010226;28;20034;-50
2022/01/08 02:36:34;;;;;;;6.70;2.05;;;1.60;99.90;;;;;;5009935;28;20062;-50
2022/01/08 02:39:00;;;;;;;3.63;2.17;;;1.60;99.90;;;;;;5009984;28;20491;-51
2022/01/08 02:41:27;;;;;;;5.43;1.77;;;1.50;99.90;;;;;;5009893;28;20045;-49
2022/01/08 02:43:54;;;;;;;3.35;2.00;;;1.50;99.90;;;;;;5010175;28;20064;-50
2022/01/08 02:46:20;;;;;;;3.65;2.08;;;1.50;99.90;;;;;;5010107;28;20125;-49
2022/01/08 02:48:46;;;;;;;4.93;1.92;;;1.50;99.90;;;;;;5010055;28;20076;-49
2022/01/08 02:51:11;;;;;;;5.30;1.67;;;1.50;99.90;;;;;;5010154;28;20372;-51
2022/01/08 02:53:37;;;;;;;4.95;2.00;;;1.50;99.90;;;;;;5009884;28;20087;-51
2022/01/08 02:56:04;;;;;;;6.38;1.40;;;1.50;99.90;;;;;;5009854;28;20041;-52
2022/01/08 02:58:29;;;;;;;4.18;1.60;;;1.60;99.90;;;;;;5009855;28;20071;-51
2022/01/08 03:00:58;;;;;;;4.70;2.15;;;1.50;99.90;;;;;;5009716;28;20042;-52
2022/01/08 03:03:24;;;;;;;3.70;1.35;;;1.60;99.90;;;;;;5009694;28;20042;-51
2022/01/08 03:05:50;;;;;;;5.32;1.50;;;1.60;99.90;;;;;;5009562;28;20388;-46
2022/01/08 03:08:16;;;;;;;4.13;1.60;;;1.60;99.90;;;;;;5009428;28;20122;-49
2022/01/08 03:10:42;;;;;;;7.50;1.60;;;1.60;99.90;;;;;;5009442;28;20126;-47
2022/01/08 03:13:08;;;;;;;4.95;1.77;;;1.70;99.90;;;;;;5009687;28;20064;-50
2022/01/08 03:15:36;;;;;;;2.72;1.55;;;1.70;99.90;;;;;;5009565;28;20116;-47
2022/01/08 03:18:05;;;;;;;3.80;1.85;;;1.60;99.90;;;;;;5009597;28;20046;-49
2022/01/08 03:20:32;;;;;;;4.68;1.52;;;1.60;99.90;;;;;;5009318;28;20111;-46
2022/01/08 03:23:03;;;;;;;3.55;1.48;;;1.60;99.90;;;;;;5009626;28;20046;-46
2022/01/08 03:25:31;;;;;;;6.18;1.33;;;1.60;99.90;;;;;;5009677;28;20053;-49
2022/01/08 03:27:57;;;;;;;6.70;1.63;;;1.60;99.90;;;;;;5008415;28;20106;-46
2022/01/08 03:30:24;;;;;;;5.38;1.50;;;1.60;99.90;;;;;;5009685;28;20106;-46
2022/01/08 03:32:51;;;;;;;5.63;1.55;;;1.60;99.90;;;;;;5009726;28;20143;-47
2022/01/08 03:35:17;;;;;;;4.18;1.63;;;1.50;99.90;;;;;;5009394;28;20403;-47
2022/01/08 03:37:42;;;;;;;5.47;1.50;;;1.60;99.90;;;;;;5009019;28;20062;-50
2022/01/08 03:40:08;;;;;;;3.60;1.27;;;1.60;99.90;;;;;;5009026;28;20077;-48
2022/01/08 03:42:34;;;;;;;2.55;1.27;;;1.50;99.90;;;;;;5009316;28;20079;-46
2022/01/08 03:45:00;;;;;;;2.25;1.20;;;1.50;99.90;;;;;;5009205;28;20037;-46
2022/01/08 03:49:55;;;;;;;6.82;1.48;;;1.40;99.90;;;;;;5009842;28;20106;-50
2022/01/08 03:52:21;;;;;;;5.65;1.30;;;1.40;99.90;;;;;;5012583;28;20048;-51
2022/01/08 03:54:47;;;;;;;7.10;1.30;;;1.30;99.90;;;;;;5012696;28;20117;-47
2022/01/08 03:57:12;;;;;;;2.95;1.23;;;1.30;99.90;;;;;;5012426;28;20041;-50
2022/01/08 03:59:38;;;;;;;6.90;1.20;;;1.30;99.90;;;;;;5012538;28;20117;-45
2022/01/08 04:02:05;;;;;;;3.80;1.20;;;1.20;99.90;;;;;;5012473;28;20387;-47
2022/01/08 04:04:30;;;;;;;4.45;1.20;;;1.20;99.90;;;;;;5012372;28;20385;-51
2022/01/08 04:06:56;;;;;;;5.93;1.35;;;1.10;99.90;;;;;;5012276;28;20102;-47
2022/01/08 04:09:21;;;;;;;2.35;1.27;;;1.10;99.90;;;;;;5012178;28;20042;-46
2022/01/08 04:11:47;;;;;;;4.53;1.50;;;1.10;99.90;;;;;;5012444;28;20077;-51
2022/01/08 04:14:15;;;;;;;9.77;1.90;;;1.10;99.90;;;;;;5012176;28;20404;-50
2022/01/08 04:16:45;;;;;;;7.47;1.55;;;1.20;99.90;;;;;;5012327;28;20090;-47
2022/01/08 04:19:11;;;;;;;7.18;1.15;;;1.20;99.90;;;;;;5012155;28;20041;-47
2022/01/08 04:21:59;;;;;;;7.20;1.50;;;1.20;99.90;;;;;;5012012;28;20498;-49
2022/01/08 04:24:22;;;;;;;6.50;1.48;;;1.10;99.90;;;;;;5011975;28;20058;-49
2022/01/08 04:26:47;;;;;;;5.25;1.40;;;1.20;99.90;;;;;;5012125;28;20038;-51
2022/01/08 04:29:16;;;;;;;2.38;1.33;;;1.30;99.90;;;;;;5012072;28;20038;-46
2022/01/08 04:31:42;;;;;;;3.65;1.52;;;1.30;99.90;;;;;;5011963;28;20038;-50
2022/01/08 04:34:07;;;;;;;5.78;1.85;;;1.30;99.90;;;;;;5011937;28;20049;-46
2022/01/08 04:36:33;;;;;;;6.40;1.88;;;1.30;99.90;;;;;;5012108;28;20069;-48
2022/01/08 04:38:59;;;;;;;5.40;2.47;;;1.30;99.90;;;;;;5012244;28;20054;-49
2022/01/08 04:41:24;;;;;;;6.00;1.67;;;1.30;99.90;;;;;;5011832;28;20045;-51
2022/01/08 04:43:50;;;;;;;7.68;2.25;;;1.40;99.90;;;;;;5011687;28;20117;-51
2022/01/08 04:46:16;;;;;;;8.60;2.53;;;1.40;99.90;;;;;;5010475;28;20484;-48
2022/01/08 04:48:42;;;;;;;5.68;1.40;;;1.40;99.90;;;;;;5011714;28;20041;-49
2022/01/08 04:51:08;;;;;;;6.57;2.22;;;1.50;99.90;;;;;;5011773;28;20130;-50
2022/01/08 04:53:34;;;;;;;6.28;1.95;;;1.50;99.90;;;;;;5011680;28;20044;-50
2022/01/08 04:55:59;;;;;;;5.60;1.90;;;1.50;99.90;;;;;;5011643;28;20059;-48
2022/01/08 04:58:25;;;;;;;5.18;1.73;;;1.50;99.90;;;;;;5011501;28;20042;-46
2022/01/08 05:00:51;;;;;;;4.70;1.92;;;1.60;99.90;;;;;;5010838;28;20042;-48
2022/01/08 05:03:16;;;;;;;5.35;2.30;;;1.50;99.90;;;;;;5010769;28;20034;-52
2022/01/08 05:05:42;;;;;;;7.80;2.20;;;1.60;99.90;;;;;;5010422;28;20042;-51
2022/01/08 05:08:08;;;;;;;8.32;1.80;;;1.50;99.90;;;;;;5011526;28;20091;-48
2022/01/08 05:10:34;;;;;;;8.38;1.98;;;1.50;99.90;;;;;;5010329;28;20073;-48
2022/01/08 05:13:05;;;;;;;5.75;1.98;;;1.60;99.90;;;;;;5011306;28;20404;-47
2022/01/08 05:15:32;;;;;;;7.40;1.77;;;1.60;99.90;;;;;;5011272;28;20050;-51
2022/01/08 05:17:58;;;;;;;3.13;1.52;;;1.50;99.90;;;;;;5011439;28;20042;-51
2022/01/08 05:20:28;;;;;;;10.77;1.80;;;1.50;99.90;;;;;;5011302;28;20366;-51
2022/01/08 05:22:59;;;;;;;4.47;1.70;;;1.50;99.90;;;;;;5011328;28;20434;-51
2022/01/08 05:25:26;;;;;;;4.07;1.40;;;1.50;99.90;;;;;;5010134;28;20038;-51
2022/01/08 05:27:52;;;;;;;6.25;1.60;;;1.50;99.90;;;;;;5009944;28;20029;-47
2022/01/08 05:30:21;;;;;;;5.20;1.92;;;1.60;99.90;;;;;;5010982;28;20079;-47
2022/01/08 05:32:47;;;;;;;7.90;1.77;;;1.50;99.90;;;;;;5011149;28;20042;-46
2022/01/08 05:35:13;;;;;;;3.13;1.80;;;1.50;99.90;;;;;;5011291;28;20042;-52
2022/01/08 05:37:39;;;;;;;4.88;2.00;;;1.60;99.90;;;;;;5010789;28;20054;-50
2022/01/08 05:40:05;;;;;;;6.68;1.73;;;1.60;99.90;;;;;;5010808;28;20207;-48
2022/01/08 05:42:31;;;;;;;5.18;1.70;;;1.60;99.90;;;;;;5010815;28;20116;-50
2022/01/08 05:44:57;;;;;;;7.43;1.50;;;1.50;99.90;;;;;;5010782;28;20174;-52
2022/01/08 05:47:23;;;;;;;4.45;1.92;;;1.50;99.90;;;;;;5011099;28;20041;-52
2022/01/08 05:49:49;;;;;;;7.43;2.00;;;1.50;99.90;;;;;;5010839;28;20038;-48
2022/01/08 05:52:14;;;;;;;7.10;1.70;;;1.50;99.90;;;;;;5010604;28;20049;-52
2022/01/08 05:54:40;;;;;;;7.22;1.48;;;1.50;99.90;;;;;;5010822;28;20038;-50
2022/01/08 05:57:06;;;;;;;8.65;1.63;;;1.50;99.90;;;;;;5011149;28;20042;-51
2022/01/08 05:59:32;;;;;;;5.07;1.58;;;1.50;99.90;;;;;;5010753;28;20106;-50
2022/01/08 06:01:58;;;;;;;4.47;1.05;;;1.50;99.90;;;;;;5010805;28;20045;-49
2022/01/08 06:04:24;;;;;;;6.18;1.60;;;1.50;99.90;;;;;;5010934;28;20045;-52
2022/01/08 06:06:50;;;;;;;6.53;1.55;;;1.50;99.90;;;;;;5010763;28;20101;-50
2022/01/08 06:09:16;;;;;;;3.33;1.42;;;1.50;99.90;;;;;;5010432;28;20049;-50
2022/01/08 06:11:41;;;;;;;10.07;2.20;;;1.50;99.90;;;;;;5010286;28;20033;-47
2022/01/08 06:14:07;;;;;;;8.38;2.05;;;1.50;99.90;;;;;;5009912;28;20053;-52
2022/01/08 06:16:35;;;;;;;4.28;1.80;;;1.50;99.90;;;;;;5010527;28;20077;-51
2022/01/08 06:19:13;;;;;;;7.72;2.13;;;1.50;99.90;;;;;;5010310;28;20056;-52
2022/01/08 06:21:39;;;;;;;7.00;1.77;;;1.50;99.90;;;;;;5010154;28;20050;-51
2022/01/08 06:24:05;;;;;;;7.97;2.13;;;1.50;99.90;;;;;;5010279;28;20041;-50
2022/01/08 06:26:31;;;;;;;9.18;2.50;;;1.50;99.90;;;;;;5010192;28;20048;-48
2022/01/08 06:28:57;;;;;;;8.00;2.30;;;1.50;99.90;;;;;;5010410;28;20559;-52
2022/01/08 06:31:24;;;;;;;6.80;2.53;;;1.40;99.90;;;;;;5010341;28;20412;-51
2022/01/08 06:33:50;;;;;;;6.50;2.58;;;1.30;99.90;;;;;;5010189;28;20042;-49
2022/01/08 06:36:19;;;;;;;8.57;2.88;;;1.40;99.90;;;;;;5010133;28;20073;-51
2022/01/08 06:38:49;;;;;;;13.30;4.28;;;1.30;99.90;;;;;;5009920;28;20503;-48
2022/01/08 06:41:15;;;;;;;6.90;3.35;;;1.30;99.90;;;;;;5010183;28;20045;-50
2022/01/08 06:43:40;;;;;;;6.65;3.35;;;1.30;99.90;;;;;;5009906;28;20366;-50
2022/01/08 06:46:06;;;;;;;10.27;4.45;;;1.30;99.90;;;;;;5010030;28;20094;-52
2022/01/08 06:48:32;;;;;;;8.00;3.55;;;1.30;99.90;;;;;;5009882;28;20484;-47
2022/01/08 06:50:58;;;;;;;8.88;3.72;;;1.30;99.90;;;;;;5010035;28;20056;-48
2022/01/08 06:53:23;;;;;;;9.07;4.18;;;1.30;99.90;;;;;;5009821;28;20046;-47
2022/01/08 06:55:49;;;;;;;8.15;4.28;;;1.20;99.90;;;;;;5009995;28;20034;-52
2022/01/08 06:58:15;;;;;;;10.43;4.30;;;1.20;99.90;;;;;;5010010;28;20046;-48
2022/01/08 07:00:41;;;;;;;13.13;4.57;;;1.20;99.90;;;;;;5009678;28;20046;-51
2022/01/08 07:03:11;;;;;;;12.05;4.55;;;1.20;99.90;;;;;;5009859;28;20075;-52
2022/01/08 07:05:37;;;;;;;9.90;4.68;;;1.20;99.90;;;;;;5009626;28;20545;-49
2022/01/08 07:08:03;;;;;;;14.07;4.85;;;1.30;99.90;;;;;;5009639;28;20038;-48
2022/01/08 07:10:29;;;;;;;8.95;4.47;;;1.30;99.90;;;;;;5009715;28;20050;-52
2022/01/08 07:12:55;;;;;;;12.98;4.97;;;1.20;99.90;;;;;;5009527;28;20060;-50
2022/01/08 07:15:20;;;;;;;9.32;4.65;;;1.20;99.90;;;;;;5009558;28;20094;-51
2022/01/08 07:17:46;;;;;;;11.95;4.32;;;1.20;99.90;;;;;;5009615;28;20046;-47
2022/01/08 07:20:12;;;;;;;10.27;4.63;;;1.20;99.90;;;;;;5009328;28;20539;-46
2022/01/08 07:22:39;;;;;;;20.95;5.28;;;1.20;99.90;;;;;;5008212;28;20395;-50
2022/01/08 07:25:05;;;;;;;11.25;5.03;;;1.20;99.90;;;;;;5008600;28;20034;-49
2022/01/08 07:27:32;;;;;;;15.70;5.13;;;1.20;99.90;;;;;;5007962;28;20103;-51
2022/01/08 07:30:03;;;;;;;13.25;5.40;;;1.30;99.90;;;;;;5009378;28;20042;-48
2022/01/08 07:32:28;;;;;;;10.93;4.68;;;1.30;99.90;;;;;;5009319;28;20041;-51
2022/01/08 07:34:54;;;;;;;9.10;4.47;;;1.30;99.90;;;;;;5009200;28;20045;-49
2022/01/08 07:37:20;;;;;;;12.02;4.65;;;1.30;99.90;;;;;;5008823;28;20404;-51
2022/01/08 07:39:45;;;;;;;14.73;4.60;;;1.30;99.90;;;;;;5009043;28;20151;-52
2022/01/08 07:42:11;;;;;;;13.65;4.35;;;1.30;99.90;;;;;;5009193;28;20049;-50
2022/01/08 07:44:37;;;;;;;11.00;4.60;;;1.30;99.90;;;;;;5009199;28;20042;-49
2022/01/08 07:47:03;;;;;;;13.40;4.15;;;1.30;99.90;;;;;;5008921;28;20034;-51
2022/01/08 07:49:29;;;;;;;8.98;4.47;;;1.30;99.90;;;;;;5008979;28;20045;-51
2022/01/08 07:51:54;;;;;;;9.25;4.65;;;1.30;99.90;;;;;;5008846;28;20042;-49
2022/01/08 07:54:20;;;;;;;11.05;4.10;;;1.30;99.90;;;;;;5009186;28;20083;-47
2022/01/08 07:56:45;;;;;;;9.57;4.40;;;1.30;99.90;;;;;;5009185;28;20515;-46
2022/01/08 07:59:11;;;;;;;8.93;3.78;;;1.30;99.90;;;;;;5009084;28;20049;-49
2022/01/08 08:01:37;;;;;;;6.85;4.05;;;1.30;99.90;;;;;;5008879;28;20034;-52
2022/01/08 08:04:03;;;;;;;13.23;4.07;;;1.30;99.90;;;;;;5008920;28;20507;-51
2022/01/08 08:06:32;;;;;;;12.23;4.15;;;1.30;99.90;;;;;;5008850;28;20099;-51
2022/01/08 08:08:57;;;;;;;9.18;3.90;;;1.30;99.90;;;;;;5008615;28;20038;-51
2022/01/08 08:11:23;;;;;;;8.18;3.85;;;1.40;99.90;;;;;;5008890;28;20057;-47
2022/01/08 08:13:48;;;;;;;15.90;4.00;;;1.40;99.90;;;;;;5008749;28;20106;-48
2022/01/08 08:16:14;;;;;;;13.65;4.35;;;1.40;99.90;;;;;;5009026;28;20044;-51
2022/01/08 08:18:40;;;;;;;11.10;3.63;;;1.40;99.90;;;;;;5008736;28;20038;-52
2022/01/08 08:21:05;;;;;;;11.93;3.67;;;1.40;99.90;;;;;;5008661;28;20381;-51
2022/01/08 08:23:31;;;;;;;9.48;3.83;;;1.40;99.90;;;;;;5008818;28;20464;-49
2022/01/08 08:25:56;;;;;;;10.45;4.03;;;1.50;99.90;;;;;;5008525;28;20038;-47
2022/01/08 08:28:22;;;;;;;10.50;3.63;;;1.50;99.90;;;;;;5008600;28;20036;-46
2022/01/08 08:30:48;;;;;;;9.45;4.13;;;1.50;99.90;;;;;;5008642;28;20437;-50
2022/01/08 08:33:13;;;;;;;8.88;4.18;;;1.50;99.90;;;;;;5008474;28;20038;-51
2022/01/08 08:35:39;;;;;;;11.63;4.70;;;1.60;99.90;;;;;;5008802;28;20050;-51
2022/01/08 08:38:05;;;;;;;9.10;3.33;;;1.60;99.90;;;;;;5011672;28;20089;-47
2022/01/08 08:40:30;;;;;;;11.05;3.80;;;1.60;99.90;;;;;;5012229;28;20092;-47
2022/01/08 08:42:56;;;;;;;7.55;3.50;;;1.70;99.90;;;;;;5012213;28;20580;-52
2022/01/08 08:45:22;;;;;;;10.88;3.08;;;1.70;99.90;;;;;;5011841;28;20435;-50
2022/01/08 08:47:49;;;;;;;10.15;3.10;;;1.80;99.90;;;;;;5011780;28;20376;-52
2022/01/08 08:50:15;;;;;;;8.52;3.20;;;1.80;99.90;;;;;;5011726;28;20046;-47
2022/01/08 08:52:41;;;;;;;14.05;3.35;;;1.90;99.90;;;;;;5011666;28;20042;-51
2022/01/08 08:55:07;;;;;;;12.30;3.67;;;1.90;99.90;;;;;;5008190;28;20042;-48
2022/01/08 08:57:33;;;;;;;13.32;3.35;;;2.00;99.90;;;;;;5011589;28;20116;-46
2022/01/08 08:59:59;;;;;;;8.30;3.33;;;2.00;99.90;;;;;;5011154;28;20471;-47
2022/01/08 09:02:24;;;;;;;10.32;3.42;;;2.10;99.90;;;;;;5011420;28;20036;-48
2022/01/08 09:04:51;;;;;;;11.27;3.25;;;2.10;99.90;;;;;;5011010;28;20037;-50
2022/01/08 09:07:17;;;;;;;10.20;3.28;;;2.10;99.90;;;;;;5008892;28;20038;-51
2022/01/08 09:09:43;;;;;;;11.43;3.53;;;2.10;99.90;;;;;;5011229;28;20042;-51
2022/01/08 09:12:13;;;;;;;10.95;3.75;;;2.20;99.90;;;;;;5009038;28;20038;-52
2022/01/08 09:14:39;;;;;;;7.65;3.70;;;2.20;99.90;;;;;;5009271;28;20054;-51
2022/01/08 09:17:05;;;;;;;11.45;3.60;;;2.30;99.90;;;;;;5011110;28;20049;-50
2022/01/08 09:19:32;;;;;;;10.80;3.60;;;2.30;99.90;;;;;;5010912;28;20042;-49
2022/01/08 09:21:58;;;;;;;12.50;3.30;;;2.30;99.90;;;;;;5008394;28;20375;-47
2022/01/08 09:24:23;;;;;;;10.15;3.58;;;2.40;99.90;;;;;;5011156;28;20034;-52
2022/01/08 09:26:49;;;;;;;11.40;3.45;;;2.50;99.90;;;;;;5010909;28;20038;-51
2022/01/08 09:29:16;;;;;;;7.30;3.03;;;2.50;99.90;;;;;;5008085;28;20038;-51
2022/01/08 09:31:42;;;;;;;11.50;3.30;;;2.50;99.90;;;;;;5011163;28;20067;-50
2022/01/08 09:34:09;;;;;;;10.40;3.38;;;2.60;99.90;;;;;;5011087;28;20507;-53
2022/01/08 09:36:37;;;;;;;16.02;3.92;;;2.60;99.90;;;;;;5010678;28;20068;-49
2022/01/08 09:39:03;;;;;;;8.25;3.05;;;2.70;99.90;;;;;;5010946;28;20045;-46
2022/01/08 09:41:29;;;;;;;8.70;3.45;;;2.70;99.90;;;;;;5010432;28;20117;-48
2022/01/08 09:43:55;;;;;;;11.38;3.25;;;2.80;99.90;;;;;;5010604;28;20176;-47
2022/01/08 09:46:21;;;;;;;22.85;3.92;;;2.80;99.90;;;;;;5003329;28;20042;-47
2022/01/08 09:48:47;;;;;;;10.32;3.13;;;2.80;99.90;;;;;;5010180;28;20049;-47
2022/01/08 09:51:13;;;;;;;10.68;3.00;;;2.80;99.90;;;;;;5009251;28;20042;-50
2022/01/08 09:53:39;;;;;;;12.13;3.20;;;2.80;99.90;;;;;;5004938;28;20038;-46
2022/01/08 09:56:06;;;;;;;9.70;3.67;;;2.80;99.90;;;;;;5011097;28;20154;-50
2022/01/08 09:58:32;;;;;;;11.32;2.80;;;2.90;99.90;;;;;;5010991;28;20046;-48
2022/01/08 10:00:58;;;;;;;11.40;3.15;;;3.00;99.90;;;;;;5010701;28;20391;-50
2022/01/08 10:03:31;;;;;;;8.75;3.17;;;3.10;99.90;;;;;;5010990;28;20044;-48
2022/01/08 10:05:58;;;;;;;13.48;2.80;;;3.20;99.90;;;;;;5011009;28;20045;-47
2022/01/08 10:08:27;;;;;;;7.18;3.30;;;3.30;99.90;;;;;;5010396;28;20038;-51
2022/01/08 10:10:58;;;;;;;10.45;3.00;;;3.40;99.90;;;;;;4995384;28;20121;-47
2022/01/08 10:13:32;;;;;;;14.88;2.80;;;3.30;99.90;;;;;;5010718;28;20117;-49
2022/01/08 10:18:44;;;;;;;6.57;2.30;;;3.30;99.90;;;;;;5010780;28;20050;-47
2022/01/08 10:21:28;;;;;;;11.00;3.65;;;3.30;99.90;;;;;;5010525;28;20045;-50
2022/01/08 10:23:57;;;;;;;5.78;2.67;;;3.40;99.90;;;;;;5010429;28;20042;-50
2022/01/08 10:26:30;;;;;;;8.65;2.63;;;3.40;99.90;;;;;;5010657;28;20050;-50
2022/01/08 10:28:59;;;;;;;11.23;3.45;;;3.40;99.90;;;;;;5010368;28;20121;-48
2022/01/08 10:31:30;;;;;;;11.07;2.93;;;3.50;99.90;;;;;;5009606;28;20179;-49
2022/01/08 10:34:08;;;;;;;14.95;3.65;;;3.40;99.90;;;;;;5010320;28;20317;-50
2022/01/08 10:36:43;;;;;;;7.90;2.65;;;3.50;99.90;;;;;;5010116;28;20049;-49
2022/01/08 10:39:31;;;;;;;13.65;2.90;;;3.50;99.90;;;;;;5061176;28;20045;-51
2022/01/08 10:42:00;;;;;;;7.47;2.72;;;3.50;99.90;;;;;;5052638;28;20044;-51
2022/01/08 10:44:27;;;;;;;;;;;3.60;99.90;;;;;;5053190;28;20059;-51
2022/01/08 10:47:05;;;;;;;10.98;3.30;;;3.50;99.90;;;;;;5052666;28;20284;-51
2022/01/08 10:49:35;;;;;;;8.57;3.20;;;3.60;99.90;;;;;;5052779;28;20114;-46
2022/01/08 10:52:07;;;;;;;16.88;3.22;;;3.50;99.90;;;;;;5052478;28;20510;-49
2022/01/08 10:54:41;;;;;;;7.32;3.00;;;3.50;99.90;;;;;;5052916;28;20147;-52
2022/01/08 10:57:11;;;;;;;16.70;4.07;;;3.50;99.90;;;;;;5052511;28;20041;-50
2022/01/08 10:59:38;;;;;;;8.98;3.83;;;3.40;99.90;;;;;;5052358;28;20109;-48
2022/01/08 11:02:08;;;;;;;7.95;4.15;;;3.40;99.90;;;;;;5052575;28;20051;-51
2022/01/08 11:04:50;;;;;;;12.88;3.58;;;3.30;99.90;;;;;;5052293;28;20040;-50
2022/01/08 11:07:36;;;;;;;12.27;4.75;;;3.20;99.90;;;;;;5052401;28;20059;-51
2022/01/08 11:10:08;;;;;;;13.98;4.43;;;3.20;99.90;;;;;;5052557;28;20041;-52
2022/01/08 11:12:41;;;;;;;10.85;4.25;;;3.30;99.90;;;;;;5051161;28;20040;-46
2022/01/08 11:17:46;;;;;;;11.02;4.57;;;3.40;99.90;;;;;;5070850;28;20480;-45
2022/01/08 11:20:18;;;;;;;9.10;4.80;;;3.40;99.90;;;;;;5070674;28;20418;-51
2022/01/08 11:22:49;;;;;;;15.30;5.32;;;3.40;99.90;;;;;;5072204;28;20047;-48
2022/01/08 11:25:17;;;;;;;8.63;4.47;;;3.40;99.90;;;;;;5070937;28;20085;-50
2022/01/08 11:28:09;;;;;;;10.77;4.60;;;3.40;99.90;;;;;;5072173;28;20041;-52
2022/01/08 11:30:47;;;;;;;13.43;5.20;;;3.40;99.90;;;;;;5072388;28;20049;-50
2022/01/08 11:33:19;;;;;;;15.18;5.20;;;3.40;99.90;;;;;;5072209;28;20048;-49
2022/01/08 11:35:46;;;;;;;11.52;4.93;;;3.40;99.90;;;;;;5072020;28;20578;-50
2022/01/08 11:38:16;;;;;;;11.68;4.88;;;3.40;99.90;;;;;;5033755;28;20057;-52
2022/01/08 11:40:44;;;;;;;13.77;5.40;;;3.40;99.90;;;;;;5008718;28;20049;-48
2022/01/08 11:43:13;;;;;;;16.17;5.22;;;3.40;99.90;;;;;;5004798;28;20038;-52
2022/01/08 11:45:48;;;;;;;10.20;5.80;;;3.50;99.90;;;;;;4990259;28;20047;-51
2022/01/08 11:48:16;;;;;;;9.25;5.40;;;3.50;99.90;;;;;;4989847;28;20030;-51
2022/01/08 11:50:55;;;;;;;12.18;5.00;;;3.40;99.90;;;;;;4989720;28;20365;-51
2022/01/08 11:53:24;;;;;;;14.75;5.18;;;3.50;99.90;;;;;;4996680;28;20042;-46
2022/01/08 11:55:49;;;;;;;17.80;6.75;;;3.60;99.90;;;;;;4996013;28;20046;-50
2022/01/08 11:58:34;;;;;;;11.07;5.80;;;3.60;99.90;;;;;;4992730;28;20054;-50
2022/01/08 12:01:20;;;;;;;19.10;5.57;;;3.60;99.90;;;;;;5008828;28;20081;-51
2022/01/08 12:03:52;;;;;;;10.65;5.85;;;3.60;99.90;;;;;;5008812;28;20046;-52
2022/01/08 12:06:21;;;;;;;12.50;5.28;;;3.70;99.90;;;;;;5009346;28;20050;-50
2022/01/08 12:08:57;;;;;;;;;;;3.70;99.90;;;;;;5009304;28;20042;-50
2022/01/08 12:11:24;;;;;;;10.80;5.70;;;3.70;99.90;;;;;;5010351;28;19917;-51
2022/01/08 12:13:50;;;;;;;14.50;5.70;;;3.70;99.90;;;;;;5012247;28;20042;-50
2022/01/08 12:16:35;;;;;;;11.80;6.20;;;3.80;99.90;;;;;;5012197;28;20045;-50
2022/01/08 12:19:06;;;;;;;17.73;6.07;;;3.70;99.90;;;;;;5012132;28;20053;-50
2022/01/08 12:21:33;;;;;;;12.90;6.25;;;3.70;99.90;;;;;;5012230;28;20041;-49
2022/01/08 12:24:19;;;;;;;10.43;6.13;;;3.70;99.90;;;;;;5012142;28;20598;-51
2022/01/08 12:26:44;;;;;;;13.98;6.32;;;3.80;99.90;;;;;;5012058;28;20042;-50
2022/01/08 12:29:10;;;;;;;19.85;7.43;;;3.80;99.90;;;;;;5010487;28;20053;-52
2022/01/08 12:31:49;;;;;;;16.05;7.20;;;3.80;99.90;;;;;;5012126;28;20045;-49
2022/01/08 12:34:34;;;;;;;13.03;6.53;;;3.80;99.90;;;;;;5012207;28;20045;-50
2022/01/08 12:37:11;;;;;;;15.20;7.13;;;3.80;99.90;;;;;;5011773;28;20046;-48
2022/01/08 12:39:43;;;;;;;16.42;7.07;;;3.80;99.90;;;;;;5011708;28;20050;-50
2022/01/08 12:42:20;;;;;;;15.02;7.65;;;3.90;99.90;;;;;;5011367;28;20507;-50
2022/01/08 12:45:19;;;;;;;12.38;7.25;;;3.80;99.90;;;;;;5002734;28;20069;-51
2022/01/08 12:47:46;;;;;;;14.18;8.05;;;3.80;99.90;;;;;;4992266;28;20043;-52
2022/01/08 12:50:39;;;;;;;13.40;8.73;;;3.80;99.90;;;;;;5003527;28;20053;-50
2022/01/08 12:53:07;;;;;;;17.38;8.95;;;3.80;99.90;;;;;;5003540;28;20049;-48
2022/01/08 12:55:35;;;;;;;13.93;9.23;;;3.80;99.90;;;;;;5004093;28;20035;-48
2022/01/08 12:58:18;;;;;;;23.05;9.70;;;3.80;99.90;;;;;;5006484;28;20076;-50
2022/01/08 13:01:02;;;;;;;17.40;10.25;;;3.80;99.90;;;;;;5005917;28;20069;-59
2022/01/08 13:03:39;;;;;;;13.43;9.32;;;3.80;99.90;;;;;;5013033;28;20468;-59
2022/01/08 13:06:13;;;;;;;18.50;10.90;;;3.80;99.90;;;;;;5001285;28;20117;-58
2022/01/08 13:08:41;;;;;;;17.15;10.32;;;3.80;99.90;;;;;;4993762;28;20117;-59
2022/01/08 13:11:09;;;;;;;21.20;11.38;;;3.90;99.90;;;;;;4993491;28;20365;-59
2022/01/08 13:13:43;;;;;;;16.58;11.25;;;3.90;99.90;;;;;;4993537;28;20034;-59
2022/01/08 13:16:19;;;;;;;17.75;11.90;;;3.90;99.90;;;;;;4993182;28;20050;-59
2022/01/08 13:19:15;;;;;;;16.13;11.10;;;3.90;99.90;;;;;;4993429;28;20439;-59
2022/01/08 13:21:52;;;;;;;20.20;12.75;;;3.90;99.90;;;;;;5008769;28;20050;-59